Time;durP1;ratioP1;P1;durP2;ratioP2;P2;SDS_P1;SDS_P2;PMS_P1;PMS_P2;Temp;Humidity;BMP_temperature;BMP_pressure;BME280_temperature;BME280_humidity;BME280_pressure;Samples;Min_cycle;Max_cycle;Signal;HPM_P1;HPM_P2
2023/03/03 00:01:07;;;;;;;6.88;3.63;;;;;;;-0.89;100.00;102640.63;5002278;28;20042;-77
2023/03/03 00:03:33;;;;;;;8.35;3.38;;;;;;;-0.92;100.00;102637.94;4963712;28;20049;-77
2023/03/03 00:05:58;;;;;;;8.73;3.20;;;;;;;-0.91;100.00;102636.22;4981905;28;20049;-77
2023/03/03 00:08:25;;;;;;;6.60;3.78;;;;;;;-0.92;100.00;102637.06;4982971;28;20511;-77
2023/03/03 00:10:51;;;;;;;9.52;3.92;;;;;;;-0.94;100.00;102633.53;4980224;28;20034;-77
2023/03/03 00:13:22;;;;;;;6.60;3.95;;;;;;;-0.96;100.00;102638.69;4977937;28;20065;-77
2023/03/03 00:15:47;;;;;;;17.98;3.83;;;;;;;-0.98;100.00;102645.56;4976805;28;20282;-74
2023/03/03 00:18:35;;;;;;;14.00;4.82;;;;;;;-1.00;100.00;102645.50;5002789;28;20045;-77
2023/03/03 00:21:02;;;;;;;15.90;5.53;;;;;;;-1.02;100.00;102638.47;4978381;28;20064;-77
2023/03/03 00:23:30;;;;;;;11.52;5.65;;;;;;;-1.02;100.00;102646.28;4979103;28;20029;-77
2023/03/03 00:25:57;;;;;;;17.15;6.15;;;;;;;-1.02;100.00;102647.19;4987397;28;20038;-77
2023/03/03 00:28:29;;;;;;;13.02;6.03;;;;;;;-1.05;100.00;102641.84;4992745;28;20241;-77
2023/03/03 00:30:57;;;;;;;11.25;5.22;;;;;;;-1.08;100.00;102644.38;4980816;28;20095;-77
2023/03/03 00:33:34;;;;;;;18.17;6.72;;;;;;;-1.10;100.00;102644.31;4981555;28;21591;-77
2023/03/03 00:36:15;;;;;;;10.63;5.85;;;;;;;-1.11;100.00;102645.16;4962143;28;20117;-77
2023/03/03 00:38:42;;;;;;;12.88;6.65;;;;;;;-1.13;100.00;102638.13;5001067;28;21995;-77
2023/03/03 00:41:25;;;;;;;10.43;5.97;;;;;;;-1.14;100.00;102642.44;4984555;28;20045;-77
2023/03/03 00:43:52;;;;;;;10.98;5.75;;;;;;;-1.14;100.00;102644.19;4998727;28;20033;-77
2023/03/03 00:46:19;;;;;;;14.55;6.15;;;;;;;-1.17;100.00;102644.06;4979003;28;20107;-78
2023/03/03 00:48:45;;;;;;;22.10;6.22;;;;;;;-1.20;100.00;102639.66;5002874;28;20040;-77
2023/03/03 00:51:27;;;;;;;10.32;6.00;;;;;;;-1.23;100.00;102637.84;4980445;28;20354;-77
2023/03/03 00:53:53;;;;;;;8.00;5.55;;;;;;;-1.28;100.00;102634.22;4983146;28;20039;-77
2023/03/03 00:56:19;;;;;;;10.70;6.45;;;;;;;-1.31;100.00;102639.28;4999796;28;20056;-77
2023/03/03 00:58:46;;;;;;;11.32;6.45;;;;;;;-1.34;100.00;102641.81;4973666;28;20493;-77
2023/03/03 01:01:13;;;;;;;10.82;6.00;;;;;;;-1.38;100.00;102634.72;4999207;28;20033;-77
2023/03/03 01:03:39;;;;;;;14.27;6.00;;;;;;;-1.41;100.00;102639.84;4977668;28;20038;-77
2023/03/03 01:06:04;;;;;;;9.32;5.88;;;;;;;-1.44;100.00;102639.72;5001648;28;20048;-77
2023/03/03 01:08:30;;;;;;;9.23;5.43;;;;;;;-1.45;100.00;102637.97;5003246;28;20091;-77
2023/03/03 01:11:03;;;;;;;10.32;5.68;;;;;;;-1.48;100.00;102645.66;4977004;28;20033;-77
2023/03/03 01:13:31;;;;;;;9.52;5.88;;;;;;;-1.49;100.00;102636.13;5002849;28;20122;-77
2023/03/03 01:15:58;;;;;;;9.95;5.93;;;;;;;-1.54;100.00;102631.63;4980711;28;20053;-77
2023/03/03 01:18:24;;;;;;;7.28;4.95;;;;;;;-1.56;100.00;102624.59;4961935;28;20544;-77
2023/03/03 01:20:49;;;;;;;11.23;5.70;;;;;;;-1.57;100.00;102638.44;4980631;28;20116;-76
2023/03/03 01:23:15;;;;;;;7.25;4.32;;;;;;;-1.58;100.00;102634.94;5001115;28;20181;-77
2023/03/03 01:25:40;;;;;;;4.88;3.83;;;;;;;-1.55;100.00;102635.06;5002863;28;20041;-77
2023/03/03 01:28:06;;;;;;;5.50;3.75;;;;;;;-1.53;100.00;102624.72;4965277;28;20042;-77
2023/03/03 01:30:32;;;;;;;5.20;3.78;;;;;;;-1.51;100.00;102623.91;5003508;28;20299;-77
2023/03/03 01:32:57;;;;;;;4.20;3.00;;;;;;;-1.49;100.00;102626.59;4967112;28;20906;-77
2023/03/03 01:35:23;;;;;;;4.72;2.90;;;;;;;-1.46;100.00;102629.28;5000893;28;21456;-77
2023/03/03 01:37:49;;;;;;;5.60;3.40;;;;;;;-1.42;100.00;102622.50;4995972;28;20052;-77
2023/03/03 01:40:20;;;;;;;3.78;2.58;;;;;;;-1.40;100.00;102623.41;4964362;28;20095;-77
2023/03/03 01:42:46;;;;;;;3.58;2.38;;;;;;;-1.36;100.00;102620.09;4964022;28;20042;-77
2023/03/03 01:45:24;;;;;;;2.55;2.08;;;;;;;-1.31;100.00;102622.84;4998350;28;21666;-77
2023/03/03 01:48:00;;;;;;;3.90;2.33;;;;;;;-1.29;100.00;102614.25;4999947;28;20048;-77
2023/03/03 01:50:31;;;;;;;4.32;2.08;;;;;;;-1.25;100.00;102612.63;5001790;28;20045;-77
2023/03/03 01:53:04;;;;;;;2.38;1.73;;;;;;;-1.19;100.00;102612.84;4963859;28;20124;-78
2023/03/03 01:55:33;;;;;;;2.47;1.92;;;;;;;-1.16;100.00;102617.22;4975421;28;20160;-77
2023/03/03 01:58:22;;;;;;;1.95;1.65;;;;;;;-1.12;100.00;102614.81;4991003;28;20067;-76
2023/03/03 02:00:50;;;;;;;4.80;1.90;;;;;;;-1.08;100.00;102612.28;4989213;28;20079;-76
2023/03/03 02:03:18;;;;;;;4.95;1.88;;;;;;;-1.07;100.00;102604.53;4990751;28;20029;-76
2023/03/03 02:05:44;;;;;;;2.55;1.98;;;;;;;-1.06;100.00;102602.81;4981584;28;20038;-76
2023/03/03 02:08:11;;;;;;;1.90;1.70;;;;;;;-1.05;100.00;102602.84;4975269;28;20489;-76
2023/03/03 02:10:37;;;;;;;3.40;2.10;;;;;;;-1.05;100.00;102615.84;4992232;28;20048;-76
2023/03/03 02:13:03;;;;;;;3.65;2.05;;;;;;;-1.05;100.00;102602.00;4960647;28;20061;-76
2023/03/03 02:15:31;;;;;;;2.40;1.98;;;;;;;-1.07;100.00;102601.03;4978217;28;20044;-76
2023/03/03 02:18:05;;;;;;;2.97;2.30;;;;;;;-1.11;100.00;102602.66;4962070;28;20041;-76
2023/03/03 02:20:49;;;;;;;4.43;2.97;;;;;;;-1.18;100.00;102611.09;4976456;28;20046;-76
2023/03/03 02:23:33;;;;;;;4.30;2.92;;;;;;;-1.23;100.00;102609.25;4998883;28;20095;-76
2023/03/03 02:26:13;;;;;;;4.38;3.00;;;;;;;-1.29;100.00;102611.66;4997021;28;21202;-76
2023/03/03 02:28:39;;;;;;;4.55;3.03;;;;;;;-1.34;100.00;102607.13;4995734;28;20041;-76
2023/03/03 02:31:14;;;;;;;4.15;2.88;;;;;;;-1.39;100.00;102610.47;4979979;28;20041;-76
2023/03/03 02:33:41;;;;;;;2.15;1.90;;;;;;;-1.40;100.00;102608.72;4997405;28;20049;-76
2023/03/03 02:36:12;;;;;;;2.75;2.33;;;;;;;-1.37;100.00;102611.41;4999056;28;20471;-76
2023/03/03 02:38:53;;;;;;;2.65;1.80;;;;;;;-1.34;100.00;102612.31;4997399;28;20152;-76
2023/03/03 02:41:50;;;;;;;3.80;1.90;;;;;;;-1.30;100.00;102602.06;4999839;28;20041;-76
2023/03/03 02:44:17;;;;;;;2.40;1.48;;;;;;;-1.29;100.00;102598.66;4974075;28;20131;-76
2023/03/03 02:46:45;;;;;;;1.92;1.70;;;;;;;-1.26;100.00;102609.16;4943937;28;20037;-76
2023/03/03 02:49:13;;;;;;;3.55;1.80;;;;;;;-1.23;100.00;102606.66;5000526;28;20125;-76
2023/03/03 02:51:39;;;;;;;2.42;1.80;;;;;;;-1.20;100.00;102599.78;4980595;28;20485;-76
2023/03/03 02:54:06;;;;;;;2.42;2.00;;;;;;;-1.17;100.00;102605.06;4992525;28;20041;-76
2023/03/03 02:56:32;;;;;;;4.10;1.88;;;;;;;-1.14;100.00;102603.44;4974490;28;20033;-76
2023/03/03 02:58:58;;;;;;;1.83;1.50;;;;;;;-1.11;100.00;102611.34;4989419;28;20037;-76
2023/03/03 03:01:23;;;;;;;1.77;1.60;;;;;;;-1.10;100.00;102607.91;4974926;28;20438;-76
2023/03/03 03:03:49;;;;;;;8.38;2.05;;;;;;;-1.11;100.00;102607.88;4981261;28;20115;-76
2023/03/03 03:06:15;;;;;;;3.83;1.73;;;;;;;-1.10;100.00;102607.03;4997354;28;20089;-76
2023/03/03 03:08:40;;;;;;;4.00;1.70;;;;;;;-1.12;100.00;102606.09;4974147;28;20393;-76
2023/03/03 03:11:06;;;;;;;2.03;1.70;;;;;;;-1.13;100.00;102607.81;5001148;28;20044;-76
2023/03/03 03:13:32;;;;;;;3.33;1.70;;;;;;;-1.14;100.00;102607.78;4975699;28;20133;-76
2023/03/03 03:15:58;;;;;;;7.40;2.10;;;;;;;-1.12;100.00;102619.09;5001051;28;20052;-76
2023/03/03 03:18:24;;;;;;;2.92;1.90;;;;;;;-1.08;100.00;102609.69;4961444;28;20247;-76
2023/03/03 03:20:50;;;;;;;2.10;1.83;;;;;;;-1.04;100.00;102607.22;4973528;28;20033;-76
2023/03/03 03:23:15;;;;;;;5.00;1.85;;;;;;;-1.00;100.00;102609.09;4998185;28;21052;-76
2023/03/03 03:25:45;;;;;;;3.80;1.73;;;;;;;-0.94;100.00;102612.72;4982309;28;20045;-76
2023/03/03 03:28:15;;;;;;;2.00;1.77;;;;;;;-0.92;100.00;102614.53;4967316;28;20245;-76
2023/03/03 03:30:43;;;;;;;2.42;2.10;;;;;;;-0.90;100.00;102614.56;4976619;28;20656;-76
2023/03/03 03:33:09;;;;;;;4.32;2.08;;;;;;;-0.88;100.00;102613.78;4981091;28;20021;-76
2023/03/03 03:35:34;;;;;;;2.95;1.85;;;;;;;-0.84;100.00;102610.44;4967166;28;20544;-76
2023/03/03 03:38:01;;;;;;;4.38;2.20;;;;;;;-0.77;100.00;102621.91;5000654;28;20030;-76
2023/03/03 03:40:27;;;;;;;2.38;1.98;;;;;;;-0.75;100.00;102615.06;4995293;28;20033;-76
2023/03/03 03:42:53;;;;;;;2.65;2.22;;;;;;;-0.74;100.00;102616.81;4963527;28;20050;-76
2023/03/03 03:45:19;;;;;;;2.03;1.83;;;;;;;-0.73;100.00;102609.88;4996520;28;20052;-76
2023/03/03 03:47:45;;;;;;;4.25;2.10;;;;;;;-0.74;100.00;102613.31;4998554;28;20025;-76
2023/03/03 03:50:11;;;;;;;2.55;2.00;;;;;;;-0.75;100.00;102612.47;4975346;28;20485;-76
2023/03/03 03:52:37;;;;;;;4.60;2.15;;;;;;;-0.76;100.00;102617.59;4976981;28;20180;-76
2023/03/03 03:55:03;;;;;;;3.17;1.83;;;;;;;-0.74;100.00;102611.63;4977032;28;20033;-76
2023/03/03 03:57:28;;;;;;;3.45;2.30;;;;;;;-0.76;100.00;102618.47;4950279;28;20052;-76
2023/03/03 03:59:54;;;;;;;4.40;2.20;;;;;;;-0.78;100.00;102614.94;4972258;28;20033;-76
2023/03/03 04:02:19;;;;;;;1.98;1.67;;;;;;;-0.78;100.00;102611.44;4999272;28;20041;-76
2023/03/03 04:04:45;;;;;;;2.50;1.85;;;;;;;-0.80;100.00;102613.13;4994430;28;20048;-76
2023/03/03 04:07:10;;;;;;;2.00;1.90;;;;;;;-0.79;100.00;102613.19;4978501;28;20084;-76
2023/03/03 04:09:36;;;;;;;1.90;1.70;;;;;;;-0.79;100.00;102602.78;4974884;28;20037;-76
2023/03/03 04:12:02;;;;;;;4.35;1.85;;;;;;;-0.79;100.00;102602.78;4996680;28;20128;-76
2023/03/03 04:14:27;;;;;;;3.30;1.63;;;;;;;-0.78;100.00;102608.84;4959854;28;20475;-76
2023/03/03 04:16:53;;;;;;;3.65;1.88;;;;;;;-0.78;100.00;102609.75;4978236;28;20057;-76
2023/03/03 04:19:18;;;;;;;3.55;1.77;;;;;;;-0.78;100.00;102607.13;4972399;28;20033;-76
2023/03/03 04:21:44;;;;;;;2.13;1.48;;;;;;;-0.82;100.00;102607.88;4981118;28;20385;-76
2023/03/03 04:24:09;;;;;;;5.15;1.70;;;;;;;-0.85;100.00;102603.50;4998854;28;20037;-76
2023/03/03 04:26:35;;;;;;;4.07;2.08;;;;;;;-0.91;100.00;102603.31;5001136;28;20891;-76
2023/03/03 04:29:00;;;;;;;2.45;1.60;;;;;;;-0.96;100.00;102595.31;4999830;28;20045;-76
2023/03/03 04:31:27;;;;;;;3.40;1.63;;;;;;;-1.02;100.00;102595.16;5000060;28;20057;-76
2023/03/03 04:33:52;;;;;;;1.63;1.52;;;;;;;-1.07;100.00;102593.25;4999811;28;20037;-76
2023/03/03 04:36:19;;;;;;;2.13;1.65;;;;;;;-1.13;100.00;102596.53;4982355;28;20083;-76
2023/03/03 04:38:45;;;;;;;2.70;1.65;;;;;;;-1.19;100.00;102593.75;4977232;28;20073;-76
2023/03/03 04:41:11;;;;;;;2.33;1.60;;;;;;;-1.22;100.00;102589.34;4976476;28;20455;-76
2023/03/03 04:43:36;;;;;;;3.78;1.80;;;;;;;-1.25;100.00;102586.66;4996982;28;20038;-76
2023/03/03 04:46:02;;;;;;;1.70;1.60;;;;;;;-1.28;100.00;102603.03;5001884;28;20037;-76
2023/03/03 04:48:28;;;;;;;1.60;1.50;;;;;;;-1.29;100.00;102600.38;4977864;28;20083;-76
2023/03/03 04:50:53;;;;;;;2.50;1.50;;;;;;;-1.27;100.00;102598.69;4980936;28;20036;-76
2023/03/03 04:53:19;;;;;;;1.75;1.50;;;;;;;-1.23;100.00;102601.47;4966393;28;20048;-76
2023/03/03 04:55:44;;;;;;;2.70;1.63;;;;;;;-1.14;100.00;102605.19;4982490;28;20728;-76
2023/03/03 04:58:10;;;;;;;2.40;1.65;;;;;;;-1.09;100.00;102606.22;4980771;28;20777;-76
2023/03/03 05:00:36;;;;;;;2.08;1.70;;;;;;;-1.06;100.00;102602.81;4974824;28;20169;-76
2023/03/03 05:03:02;;;;;;;2.47;1.65;;;;;;;-1.05;100.00;102602.84;4960751;28;20433;-76
2023/03/03 05:05:28;;;;;;;2.60;1.80;;;;;;;-1.03;100.00;102605.50;4982989;28;20038;-76
2023/03/03 05:07:53;;;;;;;2.00;1.67;;;;;;;-1.04;100.00;102599.41;4994554;28;20068;-76
2023/03/03 05:10:19;;;;;;;2.35;1.60;;;;;;;-1.03;100.00;102606.38;4998499;28;20033;-76
2023/03/03 05:12:45;;;;;;;3.65;1.83;;;;;;;-1.04;100.00;102603.75;5002294;28;20664;-76
2023/03/03 05:15:11;;;;;;;4.85;1.70;;;;;;;-1.06;100.00;102614.09;4978519;28;20040;-76
2023/03/03 05:17:40;;;;;;;2.22;1.50;;;;;;;-1.04;100.00;102608.97;4944400;28;1113826;-77
2023/03/03 05:20:07;;;;;;;2.55;1.67;;;;;;;-1.02;100.00;102612.47;4978726;28;20054;-77
2023/03/03 05:22:33;;;;;;;2.75;1.73;;;;;;;-1.03;100.00;102610.72;4982990;28;20586;-77
2023/03/03 05:24:58;;;;;;;1.95;1.80;;;;;;;-1.03;100.00;102619.38;5000881;28;20276;-77
2023/03/03 05:27:24;;;;;;;2.22;1.70;;;;;;;-1.02;100.00;102609.88;5001295;28;20072;-77
2023/03/03 05:29:50;;;;;;;1.55;1.40;;;;;;;-1.04;100.00;102615.03;4982593;28;21555;-77
2023/03/03 05:32:15;;;;;;;1.42;1.33;;;;;;;-1.04;100.00;102615.03;5000629;28;20757;-77
2023/03/03 05:34:41;;;;;;;3.13;1.60;;;;;;;-1.03;100.00;102611.59;4995583;28;20042;-78
2023/03/03 05:37:06;;;;;;;1.98;1.77;;;;;;;-0.99;100.00;102609.97;4984593;28;20472;-77
2023/03/03 05:39:33;;;;;;;1.38;1.27;;;;;;;-0.98;100.00;102610.00;4998145;28;20042;-77
2023/03/03 05:41:59;;;;;;;2.03;1.70;;;;;;;-0.94;100.00;102612.72;4976205;28;20034;-78
2023/03/03 05:44:25;;;;;;;1.40;1.30;;;;;;;-0.93;100.00;102614.50;4997967;28;20037;-77
2023/03/03 05:46:51;;;;;;;2.15;1.77;;;;;;;-0.94;100.00;102608.38;4960696;28;20043;-77
2023/03/03 05:49:16;;;;;;;2.40;1.42;;;;;;;-0.92;100.00;102608.44;5000747;28;20336;-75
2023/03/03 05:51:42;;;;;;;4.07;1.35;;;;;;;-0.93;100.00;102609.28;5000465;28;20634;-77
2023/03/03 05:54:07;;;;;;;2.53;1.73;;;;;;;-0.94;100.00;102603.19;4987550;28;20617;-75
2023/03/03 05:56:33;;;;;;;1.50;1.40;;;;;;;-0.93;100.00;102607.56;4959574;28;20491;-78
2023/03/03 05:58:59;;;;;;;4.90;1.80;;;;;;;-0.96;100.00;102603.13;4979430;28;20489;-75
2023/03/03 06:01:25;;;;;;;3.88;1.50;;;;;;;-0.96;100.00;102595.31;4997764;28;20037;-76
2023/03/03 06:03:51;;;;;;;5.03;1.52;;;;;;;-0.92;100.00;102603.25;4978612;28;20060;-76
2023/03/03 06:06:18;;;;;;;2.13;1.58;;;;;;;-0.93;100.00;102598.88;5001110;28;20579;-76
2023/03/03 06:08:44;;;;;;;1.70;1.60;;;;;;;-0.89;100.00;102605.94;5002774;28;20427;-76
2023/03/03 06:11:10;;;;;;;1.45;1.30;;;;;;;-0.83;100.00;102600.91;4999909;28;20049;-76
2023/03/03 06:13:35;;;;;;;1.65;1.55;;;;;;;-0.82;100.00;102613.06;4977357;28;20280;-76
2023/03/03 06:16:01;;;;;;;3.63;1.50;;;;;;;-0.84;100.00;102609.56;4999292;28;20059;-76
2023/03/03 06:18:26;;;;;;;5.18;2.45;;;;;;;-0.84;100.00;102614.75;4998072;28;20030;-76
2023/03/03 06:20:53;;;;;;;1.83;1.60;;;;;;;-0.83;100.00;102616.53;4973297;28;20225;-76
2023/03/03 06:23:19;;;;;;;1.73;1.50;;;;;;;-0.85;100.00;102619.09;4979234;28;20550;-76
2023/03/03 06:25:44;;;;;;;2.78;1.58;;;;;;;-0.87;100.00;102609.47;4978479;28;20061;-76
2023/03/03 06:28:10;;;;;;;4.95;1.80;;;;;;;-0.90;100.00;102615.47;4999344;28;20042;-76
2023/03/03 06:30:36;;;;;;;3.13;1.83;;;;;;;-0.91;100.00;102618.00;4970184;28;20071;-76
2023/03/03 06:33:01;;;;;;;3.65;1.88;;;;;;;-0.92;100.00;102619.75;4998815;28;20481;-76
2023/03/03 06:35:27;;;;;;;3.15;2.10;;;;;;;-0.93;100.00;102620.56;4988849;28;20057;-75
2023/03/03 06:37:52;;;;;;;2.72;2.00;;;;;;;-0.93;100.00;102609.28;4998352;28;20521;-77
2023/03/03 06:40:18;;;;;;;4.68;2.63;;;;;;;-0.96;100.00;102618.72;4980827;28;20124;-75
2023/03/03 06:42:44;;;;;;;5.35;2.63;;;;;;;-0.98;100.00;102622.16;4997554;28;20911;-75
2023/03/03 06:45:10;;;;;;;5.32;2.75;;;;;;;-0.99;100.00;102626.47;4975376;28;20033;-75
2023/03/03 06:47:35;;;;;;;4.47;2.47;;;;;;;-0.99;100.00;102625.56;4975343;28;20080;-75
2023/03/03 06:50:01;;;;;;;2.63;1.98;;;;;;;-1.00;100.00;102629.91;4997189;28;20112;-75
2023/03/03 06:52:26;;;;;;;2.42;1.95;;;;;;;-0.99;100.00;102628.16;4993813;28;20088;-75
2023/03/03 06:54:54;;;;;;;2.92;2.15;;;;;;;-0.99;100.00;102629.06;4997709;28;20152;-76
2023/03/03 06:57:28;;;;;;;2.53;2.10;;;;;;;-0.96;100.00;102630.88;4960982;28;20105;-76
2023/03/03 06:59:57;;;;;;;4.78;2.22;;;;;;;-0.94;100.00;102638.72;4977941;28;20042;-75
2023/03/03 07:02:22;;;;;;;4.28;2.45;;;;;;;-0.90;100.00;102636.28;4978333;28;20028;-77
2023/03/03 07:04:48;;;;;;;3.45;2.03;;;;;;;-0.85;100.00;102631.22;4990375;28;20602;-77
2023/03/03 07:07:19;;;;;;;1.83;1.73;;;;;;;-0.80;100.00;102642.63;4993575;28;20046;-77
2023/03/03 07:09:50;;;;;;;4.45;2.13;;;;;;;-0.75;100.00;102638.47;4960416;28;20029;-77
2023/03/03 07:12:21;;;;;;;2.13;1.73;;;;;;;-0.73;100.00;102639.38;4973236;28;20097;-77
2023/03/03 07:14:54;;;;;;;2.35;1.92;;;;;;;-0.72;100.00;102643.75;4975777;28;20836;-77
2023/03/03 07:17:21;;;;;;;2.95;1.90;;;;;;;-0.71;100.00;102645.50;4974611;28;20060;-77
2023/03/03 07:19:48;;;;;;;3.67;1.90;;;;;;;-0.70;100.00;102644.66;4972751;28;20134;-77
2023/03/03 07:22:17;;;;;;;3.75;2.03;;;;;;;-0.69;100.00;102659.44;4972745;28;20131;-77
2023/03/03 07:24:44;;;;;;;2.53;1.60;;;;;;;-0.67;100.00;102664.69;4975558;28;20037;-77
2023/03/03 07:27:13;;;;;;;1.70;1.60;;;;;;;-0.67;100.00;102654.28;4976346;28;20384;-75
2023/03/03 07:29:40;;;;;;;4.60;1.65;;;;;;;-0.65;100.00;102665.63;4973207;28;20037;-75
2023/03/03 07:32:18;;;;;;;2.58;1.95;;;;;;;-0.64;100.00;102664.81;4970846;28;20037;-76
2023/03/03 07:34:47;;;;;;;3.60;1.88;;;;;;;-0.62;100.00;102667.44;4972236;28;20069;-76
2023/03/03 07:37:17;;;;;;;4.93;2.63;;;;;;;-0.58;100.00;102666.72;4989755;28;20041;-77
2023/03/03 07:39:47;;;;;;;1.70;1.60;;;;;;;-0.56;100.00;102672.81;4993001;28;20029;-78
2023/03/03 07:42:27;;;;;;;3.90;1.90;;;;;;;-0.49;100.00;102668.72;4971881;28;20044;-78
2023/03/03 07:44:55;;;;;;;6.32;2.00;;;;;;;-0.42;100.00;102676.72;4998287;28;20172;-76
2023/03/03 07:47:26;;;;;;;2.42;2.20;;;;;;;-0.35;100.00;102671.69;4989635;28;20038;-76
2023/03/03 07:49:58;;;;;;;4.40;2.00;;;;;;;-0.27;100.00;102680.66;4992840;28;20040;-76
2023/03/03 07:52:38;;;;;;;4.18;1.85;;;;;;;-0.21;100.00;102674.72;4973035;28;20495;-75
2023/03/03 07:55:36;;;;;;;5.55;1.90;;;;;;;-0.11;100.00;102676.75;4994965;28;20080;-75
2023/03/03 07:58:11;;;;;;;3.05;1.90;;;;;;;-0.04;100.00;102678.66;4947484;28;20400;-75
2023/03/03 08:01:28;;;;;;;6.03;2.00;;;;;;;0.05;100.00;102680.66;4994369;28;21370;-75
2023/03/03 08:03:55;;;;;;;3.03;2.10;;;;;;;0.13;100.00;102686.97;4969369;28;20068;-75
2023/03/03 08:06:50;;;;;;;4.70;2.45;;;;;;;0.19;100.00;102682.75;4972476;28;20041;-75
2023/03/03 08:09:16;;;;;;;4.22;2.50;;;;;;;0.28;100.00;102693.47;4966324;28;20053;-75
2023/03/03 08:11:54;;;;;;;5.28;2.05;;;;;;;0.33;100.00;102691.84;4997226;28;20032;-76
2023/03/03 08:14:33;;;;;;;3.88;2.10;;;;;;;0.37;100.00;102691.09;4964919;28;20042;-75
2023/03/03 08:16:59;;;;;;;4.18;2.60;;;;;;;0.52;100.00;102692.34;4976450;28;20044;-74
2023/03/03 08:19:25;;;;;;;5.65;2.60;;;;;;;0.62;100.00;102694.34;4995473;28;21525;-73
2023/03/03 08:21:53;;;;;;;2.42;2.17;;;;;;;0.71;100.00;102692.81;4995253;28;20107;-73
2023/03/03 08:24:18;;;;;;;3.28;2.35;;;;;;;0.81;100.00;102692.19;4956692;28;20216;-76
2023/03/03 08:26:44;;;;;;;5.40;2.60;;;;;;;0.90;100.00;102687.22;4976029;28;20394;-74
2023/03/03 08:29:10;;;;;;;4.53;2.70;;;;;;;0.98;100.00;102691.75;5000619;28;20768;-74
2023/03/03 08:31:36;;;;;;;5.18;2.67;;;;;;;1.06;100.00;102692.81;4994618;28;20065;-74
2023/03/03 08:34:03;;;;;;;4.00;2.88;;;;;;;1.16;100.00;102689.59;4957032;28;20033;-74
2023/03/03 08:36:29;;;;;;;3.45;2.60;;;;;;;1.26;100.00;102695.00;4994781;28;20103;-75
2023/03/03 08:38:54;;;;;;;4.35;2.50;;;;;;;1.32;100.00;102684.72;4999014;28;20049;-76
2023/03/03 08:41:20;;;;;;;3.08;2.35;;;;;;;1.44;100.00;102679.78;4969258;28;21696;-75
2023/03/03 08:43:45;;;;;;;3.45;2.40;;;;;;;1.54;100.00;102686.06;4998888;28;20056;-74
2023/03/03 08:46:11;;;;;;;4.63;2.67;;;;;;;1.69;100.00;102680.28;4970764;28;20120;-74
2023/03/03 08:48:37;;;;;;;4.78;2.03;;;;;;;1.80;100.00;102682.25;4997123;28;20115;-75
2023/03/03 08:51:03;;;;;;;4.88;2.17;;;;;;;1.95;100.00;102682.56;4941684;28;20132;-76
2023/03/03 08:53:29;;;;;;;2.80;2.05;;;;;;;2.15;100.00;102676.84;4999514;28;20034;-75
2023/03/03 08:55:54;;;;;;;5.47;2.55;;;;;;;2.36;100.00;102678.09;4993494;28;20088;-76
2023/03/03 08:58:20;;;;;;;3.10;2.00;;;;;;;2.56;100.00;102673.25;4988664;28;20029;-75
2023/03/03 09:00:46;;;;;;;4.72;2.20;;;;;;;2.73;100.00;102673.53;4981674;28;20043;-75
2023/03/03 09:03:12;;;;;;;3.83;2.30;;;;;;;2.87;100.00;102678.97;4973010;28;20069;-75
2023/03/03 09:05:38;;;;;;;2.22;1.50;;;;;;;2.99;100.00;102687.03;4993678;28;20140;-75
2023/03/03 09:08:05;;;;;;;2.60;1.50;;;;;;;3.15;100.00;102681.16;4972022;28;20041;-76
2023/03/03 09:10:30;;;;;;;1.98;1.25;;;;;;;3.32;100.00;102679.66;4998615;28;20121;-76
2023/03/03 09:13:05;;;;;;;4.40;1.65;;;;;;;3.46;100.00;102681.59;4977162;28;20052;-76
2023/03/03 09:15:33;;;;;;;3.05;1.20;;;;;;;3.58;100.00;102684.38;4994352;28;20076;-75
2023/03/03 09:18:17;;;;;;;2.05;1.35;;;;;;;3.70;100.00;102682.78;4990003;28;20124;-76
2023/03/03 09:20:53;;;;;;;1.52;1.10;;;;;;;3.80;100.00;102682.91;4995160;28;20047;-76
2023/03/03 09:23:34;;;;;;;1.10;1.00;;;;;;;3.92;100.00;102678.69;4999930;28;20048;-76
2023/03/03 09:26:21;;;;;;;0.88;0.88;;;;;;;4.01;100.00;102677.91;4989371;28;20140;-76
2023/03/03 09:28:47;;;;;;;1.13;1.00;;;;;;;4.08;100.00;102682.34;4997002;28;20044;-75
2023/03/03 09:31:21;;;;;;;4.45;1.00;;;;;;;4.15;100.00;102685.94;4978717;28;20030;-75
2023/03/03 09:33:50;;;;;;;2.58;1.15;;;;;;;4.17;100.00;102685.09;4997910;28;20542;-75
2023/03/03 09:36:24;;;;;;;4.13;1.20;;;;;;;4.24;100.00;102679.91;4997994;28;21083;-75
2023/03/03 09:38:50;;;;;;;1.13;0.88;;;;;;;4.29;100.00;102686.06;4978537;28;20069;-76
2023/03/03 09:41:19;;;;;;;2.60;0.95;;;;;;;4.32;100.00;102684.34;4998366;28;20067;-76
2023/03/03 09:44:16;;;;;;;0.85;0.77;;;;;;;4.40;100.00;102688.81;4994629;28;20076;-76
2023/03/03 09:46:53;;;;;;;1.83;0.80;;;;;;;4.49;100.00;102695.00;4941912;28;20033;-75
2023/03/03 09:49:40;;;;;;;0.90;0.80;;;;;;;4.60;100.00;102695.16;4977252;28;20045;-76
2023/03/03 09:52:42;;;;;;;1.00;0.90;;;;;;;4.73;100.00;102698.75;4970865;28;20058;-76
2023/03/03 09:55:59;;;;;;;0.50;0.50;;;;;;;4.81;100.00;102701.44;4944894;28;20396;-76
2023/03/03 09:58:44;;;;;;;0.63;0.63;;;;;;;4.87;100.00;102705.84;4954725;28;20509;-76
2023/03/03 10:01:13;;;;;;;3.58;1.30;;;;;;;4.93;100.00;102700.66;4973249;28;20576;-76
2023/03/03 10:03:56;;;;;;;1.65;0.80;;;;;;;4.96;100.00;102694.56;4987647;28;20042;-76
2023/03/03 10:06:57;;;;;;;1.10;0.70;;;;;;;4.98;100.00;102700.69;4997820;28;20025;-76
2023/03/03 10:09:33;;;;;;;2.75;0.80;;;;;;;5.04;100.00;102703.38;4958366;28;20037;-77
2023/03/03 10:12:21;;;;;;;1.38;0.70;;;;;;;5.08;100.00;102699.91;4946517;28;20095;-77
2023/03/03 10:15:19;;;;;;;2.13;0.70;;;;;;;5.10;100.00;102705.16;4956118;28;20067;-76
2023/03/03 10:17:53;;;;;;;0.90;0.80;;;;;;;5.14;100.00;102709.56;4987804;28;21438;-75
2023/03/03 10:20:29;;;;;;;0.85;0.77;;;;;;;5.12;100.00;102711.31;4971605;28;20609;-76
2023/03/03 10:23:03;;;;;;;0.63;0.60;;;;;;;5.11;100.00;102704.28;4974298;28;20045;-76
2023/03/03 10:25:41;;;;;;;2.10;0.60;;;;;;;5.14;100.00;102704.31;4973554;28;20041;-76
2023/03/03 10:28:17;;;;;;;0.60;0.60;;;;;;;5.15;100.00;102695.56;4978465;28;20725;-76
2023/03/03 10:31:06;;;;;;;2.22;0.50;;;;;;;5.15;100.00;102701.72;4988320;28;20079;-76
2023/03/03 10:33:50;;;;;;;1.10;0.60;;;;;;;5.15;100.00;102703.44;4991785;28;20099;-76
2023/03/03 10:36:40;;;;;;;2.75;0.70;;;;;;;5.19;100.00;102702.59;4969021;28;20501;-76
2023/03/03 10:39:28;;;;;;;1.27;0.70;;;;;;;5.24;100.00;102711.38;4995542;28;20041;-76
2023/03/03 10:42:35;;;;;;;2.08;0.73;;;;;;;5.27;100.00;102711.41;4977591;28;20412;-76
2023/03/03 10:45:26;;;;;;;3.42;0.98;;;;;;;5.28;100.00;102714.91;4946893;28;21744;-76
2023/03/03 10:48:15;;;;;;;1.33;0.68;;;;;;;5.25;100.00;102710.53;4989969;28;20068;-76
2023/03/03 10:50:43;;;;;;;1.55;0.68;;;;;;;5.25;100.00;102707.00;4949563;28;20496;-76
2023/03/03 10:53:15;;;;;;;1.25;0.80;;;;;;;5.26;100.00;102711.41;4971151;28;20045;-76
2023/03/03 10:56:21;;;;;;;1.35;0.70;;;;;;;5.28;100.00;102707.03;5000737;28;20042;-76
2023/03/03 10:59:04;;;;;;;1.75;0.60;;;;;;;5.30;100.00;102719.28;4976654;28;20038;-76
2023/03/03 11:01:44;;;;;;;2.42;0.60;;;;;;;5.34;100.00;102711.47;5000367;28;20038;-76
2023/03/03 11:04:18;;;;;;;1.63;1.02;;;;;;;5.39;100.00;102705.34;4983163;28;20036;-76
2023/03/03 11:06:47;;;;;;;3.88;0.90;;;;;;;5.45;100.00;102709.75;4990764;28;20045;-76
2023/03/03 11:09:31;;;;;;;2.40;0.80;;;;;;;5.49;100.00;102703.66;4998446;28;20080;-76
2023/03/03 11:12:20;;;;;;;2.15;0.63;;;;;;;5.49;100.00;102703.66;4989263;28;20041;-76
2023/03/03 11:15:13;;;;;;;2.33;0.77;;;;;;;5.51;100.00;102703.69;4998289;28;21870;-76
2023/03/03 11:17:45;;;;;;;4.25;1.02;;;;;;;5.52;100.00;102708.94;4975091;28;20045;-76
2023/03/03 11:20:39;;;;;;;1.38;0.98;;;;;;;5.56;100.00;102699.34;4989014;28;20755;-76
2023/03/03 11:23:08;;;;;;;1.15;0.70;;;;;;;5.57;100.00;102701.94;4957236;28;20264;-75
2023/03/03 11:25:45;;;;;;;0.50;0.50;;;;;;;5.60;100.00;102708.09;4986522;28;20984;-76
2023/03/03 11:28:45;;;;;;;1.85;0.60;;;;;;;5.57;100.00;102708.97;4970055;28;20038;-76
2023/03/03 11:31:41;;;;;;;0.98;0.70;;;;;;;5.56;100.00;102705.44;4961638;28;21450;-75
2023/03/03 11:34:27;;;;;;;1.67;0.65;;;;;;;5.62;100.00;102698.47;4990673;28;20057;-75
2023/03/03 11:37:12;;;;;;;4.55;0.70;;;;;;;5.70;100.00;102702.00;4953288;28;20556;-76